15  °C
Temperature
14  °C
  Dewpoint
94  %
   Humidity
Temp | Dewpoint | Humidity
13  km/h
Wind Speed
8  mph
Wind Speed
7  kts
Wind Speed
210°
South South
West

Wind Speed
Light Rain
Showers
Pressure 1015.92 (hPa) - 30 (in)
Visibility 6.2 (mi) - 10.0 (km)

Current Conditions
EGBJ
Location 6km (3.2mi)
Metar :EGBJ 301520Z 21007KT 9999 -RA FEW011 BKN021 15/14 Q1016
Fri 30th October 15:20 pm

Airport
https://www.checkwx.com/
  Metar Aviation API Data Provided by https://www.checkwx.com/ CSS/SVG/PHP scripts by weather34.com © 2015-2020